createdAt,value
2019-02-26T00:00:32.703Z,8.90
2019-02-26T00:03:04.192Z,8.73
2019-02-26T00:05:33.071Z,10.10
2019-02-26T00:08:02.664Z,10.40
2019-02-26T00:10:34.002Z,9.93
2019-02-26T00:13:02.115Z,10.20
2019-02-26T00:15:33.351Z,10.70
2019-02-26T00:18:01.443Z,9.13
2019-02-26T00:20:33.283Z,9.67
2019-02-26T00:23:02.108Z,10.27
2019-02-26T00:25:31.294Z,9.27
2019-02-26T00:28:00.199Z,9.67
2019-02-26T00:30:31.106Z,9.60
2019-02-26T00:33:00.030Z,8.77
2019-02-26T00:35:30.203Z,9.30
2019-02-26T00:37:59.103Z,9.00
2019-02-26T00:40:28.068Z,8.87
2019-02-26T00:42:59.372Z,9.80
2019-02-26T00:45:29.384Z,10.00
2019-02-26T00:47:58.028Z,9.23
2019-02-26T00:50:28.153Z,9.47
2019-02-26T00:52:59.424Z,9.00
2019-02-26T00:55:29.796Z,8.87
2019-02-26T00:58:00.708Z,9.17
2019-02-26T01:00:30.760Z,9.63
2019-02-26T01:03:01.453Z,9.37
2019-02-26T01:05:30.083Z,9.10
2019-02-26T01:07:59.081Z,10.17
2019-02-26T01:10:27.937Z,10.07
2019-02-26T01:12:58.585Z,9.97
2019-02-26T01:15:27.381Z,9.03
2019-02-26T01:17:57.168Z,9.13
2019-02-26T01:20:27.539Z,9.77
2019-02-26T01:22:57.361Z,9.50
2019-02-26T01:25:26.219Z,9.50
2019-02-26T01:27:56.265Z,9.57
2019-02-26T01:30:27.023Z,9.37
2019-02-26T01:32:58.164Z,8.90
2019-02-26T01:35:28.866Z,9.43
2019-02-26T01:37:59.890Z,8.70
2019-02-26T01:40:28.086Z,8.77
2019-02-26T01:43:01.085Z,9.97
2019-02-26T01:45:31.755Z,8.77
2019-02-26T01:47:59.846Z,9.03
2019-02-26T01:50:30.618Z,9.70
2019-02-26T01:53:01.079Z,8.90
2019-02-26T01:55:29.894Z,10.00
2019-02-26T01:57:59.264Z,8.90
2019-02-26T02:00:28.310Z,8.90
2019-02-26T02:02:57.283Z,9.50
2019-02-26T02:05:28.680Z,9.47
2019-02-26T02:07:56.790Z,8.98
2019-02-26T02:10:25.629Z,9.37
2019-02-26T02:12:57.372Z,8.90
2019-02-26T02:15:25.094Z,8.67
2019-02-26T02:17:55.413Z,9.93
2019-02-26T02:20:24.552Z,9.90
2019-02-26T02:22:53.416Z,9.30
2019-02-26T02:25:22.393Z,8.93
2019-02-26T02:27:54.148Z,9.27
2019-02-26T02:30:25.475Z,9.30
2019-02-26T02:32:56.462Z,8.93
2019-02-26T02:35:22.858Z,8.63
2019-02-26T02:37:53.519Z,9.17
2019-02-26T02:40:22.235Z,8.67
2019-02-26T02:42:51.601Z,9.90
2019-02-26T02:45:21.209Z,8.73
2019-02-26T02:47:54.745Z,9.73
2019-02-26T02:50:20.813Z,9.60
2019-02-26T02:52:50.880Z,9.67
2019-02-26T02:55:20.167Z,8.90
2019-02-26T02:57:52.374Z,9.50
2019-02-26T03:00:22.749Z,10.13
2019-02-26T03:02:52.847Z,8.97
2019-02-26T03:05:20.730Z,9.33
2019-02-26T03:07:51.512Z,9.47
2019-02-26T03:10:20.125Z,8.95
2019-02-26T03:12:53.863Z,9.50
2019-02-26T03:15:21.859Z,9.87
2019-02-26T03:17:50.167Z,10.53
2019-02-26T03:20:19.168Z,10.30
2019-02-26T03:22:49.141Z,9.17
2019-02-26T03:25:21.100Z,9.40
2019-02-26T03:27:48.878Z,9.23
2019-02-26T03:30:26.464Z,9.37
2019-02-26T03:32:52.042Z,9.23
2019-02-26T03:35:22.704Z,9.43
2019-02-26T03:37:52.378Z,10.03
2019-02-26T03:40:21.572Z,8.73
2019-02-26T03:42:50.922Z,9.40
2019-02-26T03:45:23.623Z,9.68
2019-02-26T03:47:50.340Z,9.03
2019-02-26T03:50:19.274Z,9.88
2019-02-26T03:52:48.104Z,9.40
2019-02-26T03:55:18.898Z,9.93
2019-02-26T03:57:50.606Z,9.60
2019-02-26T04:00:19.871Z,8.90
2019-02-26T04:02:51.285Z,8.85
2019-02-26T04:05:19.181Z,9.38
2019-02-26T04:07:49.842Z,10.48
2019-02-26T04:10:18.681Z,10.00
2019-02-26T04:12:48.782Z,10.88
2019-02-26T04:15:18.068Z,11.08
2019-02-26T04:17:47.092Z,10.35
2019-02-26T04:20:16.382Z,10.63
2019-02-26T04:22:48.996Z,9.85
2019-02-26T04:25:25.654Z,10.45
2019-02-26T04:28:13.418Z,10.13
2019-02-26T04:31:02.739Z,10.67
2019-02-26T04:33:49.176Z,10.43
2019-02-26T04:36:23.022Z,10.88
2019-02-26T04:39:13.688Z,11.70
2019-02-26T04:41:59.395Z,10.82
2019-02-26T04:44:52.412Z,10.23
2019-02-26T04:47:24.220Z,10.25
2019-02-26T04:49:54.407Z,10.80
2019-02-26T04:52:24.177Z,10.45
2019-02-26T04:54:53.061Z,10.65
2019-02-26T04:57:22.182Z,10.32
2019-02-26T04:59:51.155Z,10.68
2019-02-26T05:02:19.992Z,10.40
2019-02-26T05:04:48.877Z,11.85
2019-02-26T05:07:19.373Z,11.35
2019-02-26T05:09:51.159Z,10.70
2019-02-26T05:12:18.757Z,10.65
2019-02-26T05:14:47.641Z,11.20
2019-02-26T05:17:18.496Z,10.82
2019-02-26T05:19:48.742Z,11.97
2019-02-26T05:22:21.463Z,11.48
2019-02-26T05:24:50.164Z,11.60
2019-02-26T05:27:21.841Z,12.13
2019-02-26T05:29:51.739Z,11.50
2019-02-26T05:32:21.806Z,13.10
2019-02-26T05:34:50.854Z,11.48
2019-02-26T05:37:19.953Z,11.53
2019-02-26T05:39:51.391Z,10.55
2019-02-26T05:42:19.471Z,10.40
2019-02-26T05:44:48.291Z,11.85
2019-02-26T05:47:19.318Z,11.22
2019-02-26T05:49:47.723Z,10.38
2019-02-26T05:52:16.599Z,12.10
2019-02-26T05:54:45.456Z,12.45
2019-02-26T05:57:27.149Z,13.03
2019-02-26T05:59:44.800Z,11.73
2019-02-26T06:02:16.125Z,11.90
2019-02-26T06:04:46.561Z,12.20
2019-02-26T06:07:19.301Z,11.55
2019-02-26T06:09:46.017Z,12.20
2019-02-26T06:12:15.868Z,13.05
2019-02-26T06:14:44.710Z,13.40
2019-02-26T06:17:15.555Z,12.05
2019-02-26T06:19:45.108Z,12.78
2019-02-26T06:22:16.965Z,12.98
2019-02-26T06:24:44.503Z,13.15
2019-02-26T06:27:15.846Z,12.80
2019-02-26T06:29:43.956Z,12.60
2019-02-26T06:32:14.042Z,12.50
2019-02-26T06:34:42.874Z,11.50
2019-02-26T06:37:16.652Z,12.37
2019-02-26T06:39:45.520Z,10.60
2019-02-26T06:42:14.577Z,12.37
2019-02-26T06:44:44.365Z,12.68
2019-02-26T06:47:14.168Z,11.68
2019-02-26T06:49:43.862Z,12.30
2019-02-26T06:52:15.467Z,12.73
2019-02-26T06:54:47.740Z,12.78
2019-02-26T06:57:14.778Z,11.70
2019-02-26T06:59:43.706Z,13.30
2019-02-26T07:02:12.588Z,15.03
2019-02-26T07:04:41.463Z,12.67
2019-02-26T07:07:14.143Z,11.73
2019-02-26T07:09:41.959Z,12.00
2019-02-26T07:12:11.382Z,11.63
2019-02-26T07:14:40.239Z,11.73
2019-02-26T07:17:09.099Z,11.77
2019-02-26T07:19:38.111Z,12.30
2019-02-26T07:22:08.296Z,12.03
2019-02-26T07:24:38.557Z,12.60
2019-02-26T07:27:09.094Z,11.10
2019-02-26T07:29:40.096Z,11.80
2019-02-26T07:32:08.771Z,11.57
2019-02-26T07:34:37.654Z,11.70
2019-02-26T07:37:08.811Z,11.77
2019-02-26T07:39:37.087Z,12.90
2019-02-26T07:42:07.405Z,11.90
2019-02-26T07:44:36.458Z,12.10
2019-02-26T07:47:06.716Z,11.53
2019-02-26T07:49:35.924Z,11.50
2019-02-26T07:52:06.718Z,11.63
2019-02-26T07:54:37.743Z,12.50
2019-02-26T07:57:05.999Z,12.20
2019-02-26T07:59:36.839Z,12.23
2019-02-26T08:02:06.394Z,13.10
2019-02-26T08:04:36.356Z,12.70
2019-02-26T08:07:06.566Z,11.47
2019-02-26T08:09:35.402Z,11.33
2019-02-26T08:12:06.169Z,11.57
2019-02-26T08:14:34.938Z,12.10
2019-02-26T08:17:04.377Z,10.90
2019-02-26T08:19:36.672Z,10.60
2019-02-26T08:22:04.905Z,12.03
2019-02-26T08:24:33.798Z,11.20
2019-02-26T08:27:03.495Z,11.83
2019-02-26T08:29:34.320Z,11.33
2019-02-26T08:32:04.618Z,11.60
2019-02-26T08:34:33.486Z,11.93
2019-02-26T08:37:02.314Z,11.40
2019-02-26T08:39:31.219Z,10.77
2019-02-26T08:42:02.023Z,11.37
2019-02-26T08:44:30.873Z,10.77
2019-02-26T08:46:59.724Z,12.20
2019-02-26T08:49:28.609Z,12.43
2019-02-26T08:51:57.525Z,12.23
2019-02-26T08:54:28.305Z,11.93
2019-02-26T08:56:56.902Z,12.23
2019-02-26T08:59:25.765Z,11.90
2019-02-26T09:01:54.594Z,11.43
2019-02-26T09:04:23.898Z,12.60
2019-02-26T09:06:54.787Z,11.60
2019-02-26T09:09:25.339Z,11.70
2019-02-26T09:11:55.910Z,10.40
2019-02-26T09:14:24.572Z,11.23
2019-02-26T09:16:54.953Z,11.50
2019-02-26T09:19:25.268Z,12.27
2019-02-26T09:21:54.815Z,12.03
2019-02-26T09:24:23.787Z,12.17
2019-02-26T09:26:54.715Z,11.73
2019-02-26T09:29:23.164Z,11.53
2019-02-26T09:31:52.033Z,11.60
2019-02-26T09:34:20.882Z,12.00
2019-02-26T09:36:52.767Z,11.30
2019-02-26T09:39:20.366Z,11.17
2019-02-26T09:41:49.208Z,12.60
2019-02-26T09:44:18.077Z,11.00
2019-02-26T09:46:46.920Z,12.30
2019-02-26T09:49:15.756Z,11.83
2019-02-26T09:51:44.687Z,12.10
2019-02-26T09:54:15.278Z,12.27
2019-02-26T09:56:44.205Z,11.93
2019-02-26T09:59:14.661Z,12.40
2019-02-26T10:01:43.756Z,11.67
2019-02-26T10:04:12.651Z,12.50
2019-02-26T10:06:42.576Z,12.27
2019-02-26T10:09:15.286Z,12.53
2019-02-26T10:11:44.341Z,12.40
2019-02-26T10:14:15.033Z,12.80
2019-02-26T10:16:44.544Z,12.13
2019-02-26T10:19:14.880Z,12.40
2019-02-26T10:21:44.908Z,12.90
2019-02-26T10:24:13.905Z,11.90
2019-02-26T10:26:43.337Z,12.37
2019-02-26T10:29:12.516Z,12.40
2019-02-26T10:31:41.462Z,12.33
2019-02-26T10:34:12.579Z,12.47
2019-02-26T10:36:45.903Z,12.50
2019-02-26T10:39:11.398Z,11.97
2019-02-26T10:41:42.264Z,12.30
2019-02-26T10:44:10.840Z,11.67
2019-02-26T10:46:41.873Z,11.97
2019-02-26T10:49:12.349Z,12.23
2019-02-26T10:51:42.664Z,12.23
2019-02-26T10:54:13.317Z,12.67
2019-02-26T10:56:42.569Z,13.10
2019-02-26T10:59:13.130Z,12.27
2019-02-26T11:01:42.709Z,11.80
2019-02-26T11:04:11.668Z,11.93
2019-02-26T11:06:43.747Z,12.47
2019-02-26T11:09:14.382Z,12.80
2019-02-26T11:11:42.409Z,11.90
2019-02-26T11:14:13.484Z,12.37
2019-02-26T11:16:41.946Z,12.03
2019-02-26T11:19:12.354Z,12.27
2019-02-26T11:21:41.396Z,11.80
2019-02-26T11:24:11.284Z,12.07
2019-02-26T11:26:40.911Z,11.77
2019-02-26T11:29:10.740Z,13.03
2019-02-26T11:31:41.681Z,11.43
2019-02-26T11:34:12.752Z,13.30
2019-02-26T11:36:40.969Z,13.97
2019-02-26T11:39:12.095Z,12.90
2019-02-26T11:41:40.781Z,13.67
2019-02-26T11:44:12.524Z,14.43
2019-02-26T11:46:40.316Z,12.90
2019-02-26T11:49:09.867Z,19.93
2019-02-26T11:51:41.827Z,14.33
2019-02-26T11:54:10.769Z,13.97
2019-02-26T11:56:42.582Z,15.03
2019-02-26T11:59:12.591Z,14.00
2019-02-26T12:01:42.150Z,13.87
2019-02-26T12:04:13.645Z,13.23
2019-02-26T12:06:41.702Z,13.90
2019-02-26T12:09:11.512Z,14.67
2019-02-26T12:11:41.164Z,14.37
2019-02-26T12:14:10.897Z,13.93
2019-02-26T12:16:40.797Z,14.50
2019-02-26T12:19:10.829Z,14.10
2019-02-26T12:21:39.908Z,14.30
2019-02-26T12:24:09.223Z,13.73
2019-02-26T12:26:41.654Z,13.00
2019-02-26T12:29:10.073Z,13.00
2019-02-26T12:31:39.158Z,13.33
2019-02-26T12:34:09.200Z,13.73
2019-02-26T12:36:38.795Z,12.77
2019-02-26T12:39:09.088Z,12.87
2019-02-26T12:41:41.185Z,12.80
2019-02-26T12:46:39.006Z,12.90
2019-02-26T12:49:09.365Z,12.37
2019-02-26T12:51:38.345Z,12.17
2019-02-26T12:54:10.052Z,12.33
2019-02-26T12:56:37.873Z,11.67
2019-02-26T12:59:07.619Z,12.13
2019-02-26T13:01:39.537Z,12.63
2019-02-26T13:04:09.450Z,12.43
2019-02-26T13:06:40.989Z,11.70
2019-02-26T13:09:08.335Z,12.67
2019-02-26T13:11:37.195Z,12.57
2019-02-26T13:14:06.041Z,12.40
2019-02-26T13:16:34.911Z,12.33
2019-02-26T13:19:04.662Z,12.00
2019-02-26T13:21:33.783Z,12.13
2019-02-26T13:24:11.484Z,11.93
2019-02-26T13:26:36.303Z,12.00
2019-02-26T13:29:03.586Z,12.33
2019-02-26T13:31:35.906Z,11.60
2019-02-26T13:34:03.007Z,12.03
2019-02-26T13:36:36.096Z,13.03
2019-02-26T13:39:02.415Z,13.27
2019-02-26T13:41:38.708Z,12.20
2019-02-26T13:44:02.209Z,12.53
2019-02-26T13:46:31.147Z,12.20
2019-02-26T13:49:00.117Z,12.20
2019-02-26T13:51:28.953Z,12.10
2019-02-26T13:53:57.823Z,10.63
2019-02-26T13:56:26.672Z,19.03
2019-02-26T13:58:55.526Z,10.80
2019-02-26T14:01:24.457Z,9.83
2019-02-26T14:03:53.319Z,9.27
2019-02-26T14:06:22.234Z,9.87
2019-02-26T14:08:51.516Z,9.27
2019-02-26T14:11:20.343Z,8.50
2019-02-26T14:13:49.344Z,8.43
2019-02-26T14:16:18.184Z,9.20
2019-02-26T14:18:48.296Z,10.23
2019-02-26T14:21:17.417Z,10.27
2019-02-26T14:23:46.324Z,9.53
2019-02-26T14:26:15.086Z,9.53
2019-02-26T14:28:44.107Z,9.60
2019-02-26T14:31:13.070Z,9.40
2019-02-26T14:33:41.959Z,9.87
2019-02-26T14:36:10.807Z,9.33
2019-02-26T14:38:39.692Z,11.00
2019-02-26T14:41:08.561Z,10.60
2019-02-26T14:43:37.442Z,10.17
2019-02-26T14:46:06.291Z,10.60
2019-02-26T14:48:35.189Z,10.93
2019-02-26T14:51:04.096Z,10.10
2019-02-26T14:53:32.991Z,11.47
2019-02-26T14:56:01.897Z,10.77
2019-02-26T14:58:30.707Z,10.87
2019-02-26T15:01:00.429Z,11.73
2019-02-26T15:03:29.664Z,10.67
2019-02-26T15:05:58.512Z,11.40
2019-02-26T15:08:27.667Z,10.93
2019-02-26T15:10:56.541Z,10.57
2019-02-26T15:13:25.583Z,11.70
2019-02-26T15:15:54.513Z,11.67
2019-02-26T15:18:23.416Z,11.70
2019-02-26T15:20:52.245Z,11.60
2019-02-26T15:23:21.154Z,11.00
2019-02-26T15:25:49.979Z,12.07
2019-02-26T15:28:18.860Z,12.03
2019-02-26T15:30:47.821Z,11.50
2019-02-26T15:33:16.692Z,11.53
2019-02-26T15:35:46.932Z,12.37
2019-02-26T15:38:15.949Z,11.57
2019-02-26T15:40:44.826Z,10.87
2019-02-26T15:43:13.653Z,11.87
2019-02-26T15:45:51.551Z,10.73
2019-02-26T15:48:13.070Z,10.70
2019-02-26T15:50:41.928Z,10.93
2019-02-26T15:53:10.760Z,10.53
2019-02-26T15:55:39.924Z,11.87
2019-02-26T15:58:08.833Z,11.20
2019-02-26T16:00:38.449Z,11.27
2019-02-26T16:03:07.537Z,12.67
2019-02-26T16:05:36.531Z,12.80
2019-02-26T16:08:05.453Z,11.80
2019-02-26T16:10:34.344Z,11.43
2019-02-26T16:13:05.978Z,10.93
2019-02-26T16:15:35.233Z,11.67
2019-02-26T16:18:04.125Z,11.87
2019-02-26T16:20:33.004Z,11.67
2019-02-26T16:23:01.952Z,13.47
2019-02-26T16:25:30.895Z,13.53
2019-02-26T16:27:59.794Z,14.20
2019-02-26T16:30:28.907Z,12.63
2019-02-26T16:32:57.755Z,13.23
2019-02-26T16:35:26.684Z,13.97
2019-02-26T16:37:55.547Z,16.70
2019-02-26T16:40:24.540Z,16.40
2019-02-26T16:42:53.420Z,17.17
2019-02-26T16:45:22.619Z,16.80
2019-02-26T16:47:51.542Z,14.57
2019-02-26T16:50:21.272Z,14.03
2019-02-26T16:52:50.111Z,13.97
2019-02-26T16:55:18.994Z,12.97
2019-02-26T16:57:48.141Z,12.90
2019-02-26T17:00:17.699Z,14.60
2019-02-26T17:02:46.558Z,13.27
2019-02-26T17:05:15.424Z,16.03
2019-02-26T17:07:44.378Z,12.47
2019-02-26T17:10:14.813Z,11.07
2019-02-26T17:12:45.335Z,10.97
2019-02-26T17:15:17.173Z,11.20
2019-02-26T17:17:46.078Z,10.47
2019-02-26T17:20:14.939Z,10.43
2019-02-26T17:22:44.966Z,10.63
2019-02-26T17:25:14.092Z,11.30
2019-02-26T17:27:43.014Z,10.40
2019-02-26T17:30:12.260Z,10.93
2019-02-26T17:32:41.157Z,10.63
2019-02-26T17:35:10.169Z,11.27
2019-02-26T17:37:41.452Z,12.23
2019-02-26T17:40:10.065Z,10.87
2019-02-26T17:42:38.966Z,11.67
2019-02-26T17:45:08.987Z,10.50
2019-02-26T17:47:37.814Z,12.10
2019-02-26T17:50:09.640Z,12.17
2019-02-26T17:52:38.561Z,12.30
2019-02-26T17:55:09.330Z,11.87
2019-02-26T17:57:38.247Z,12.53
2019-02-26T18:00:08.312Z,12.00
2019-02-26T18:02:37.249Z,11.90
2019-02-26T18:05:06.101Z,13.00
2019-02-26T18:07:38.383Z,11.77
2019-02-26T18:10:06.577Z,12.43
2019-02-26T18:12:35.463Z,10.63
2019-02-26T18:15:04.977Z,10.80
2019-02-26T18:17:33.853Z,12.83
2019-02-26T18:20:02.693Z,11.57
2019-02-26T18:22:31.592Z,10.53
2019-02-26T18:25:00.429Z,11.13
2019-02-26T18:27:30.635Z,11.40
2019-02-26T18:29:59.828Z,12.67
2019-02-26T18:32:28.750Z,11.43
2019-02-26T18:34:57.589Z,12.07
2019-02-26T18:37:26.557Z,13.47
2019-02-26T18:39:55.413Z,11.33
2019-02-26T18:42:24.304Z,12.20
2019-02-26T18:45:03.853Z,12.73
2019-02-26T18:47:32.732Z,12.47
2019-02-26T18:50:01.710Z,13.50
2019-02-26T18:52:30.599Z,13.07
2019-02-26T18:54:59.533Z,19.67
2019-02-26T18:57:28.485Z,19.33
2019-02-26T18:59:57.432Z,17.87
2019-02-26T19:02:26.470Z,16.53
2019-02-26T19:04:55.314Z,15.20
2019-02-26T19:07:24.168Z,15.00
2019-02-26T19:09:53.132Z,14.50
2019-02-26T19:12:22.026Z,15.87
2019-02-26T19:14:50.845Z,15.80
2019-02-26T19:17:19.724Z,14.37
2019-02-26T19:19:50.465Z,16.10
2019-02-26T19:22:19.285Z,14.53
2019-02-26T19:24:48.063Z,17.17
2019-02-26T19:27:19.370Z,16.00
2019-02-26T19:29:47.635Z,20.93
2019-02-26T19:32:16.525Z,24.90
2019-02-26T19:34:45.418Z,18.40
2019-02-26T19:37:16.669Z,21.93
2019-02-26T19:39:44.813Z,20.47
2019-02-26T19:42:17.409Z,15.37
2019-02-26T19:44:44.338Z,15.83
2019-02-26T19:47:14.337Z,16.13
2019-02-26T19:49:43.346Z,14.33
2019-02-26T19:52:12.238Z,15.27
2019-02-26T19:54:41.977Z,14.33
2019-02-26T19:57:12.316Z,16.37
2019-02-26T19:59:41.375Z,15.10
2019-02-26T20:02:10.267Z,13.90
2019-02-26T20:04:39.129Z,14.90
2019-02-26T20:07:08.040Z,14.23
2019-02-26T20:09:38.851Z,11.80
2019-02-26T20:12:07.558Z,12.93
2019-02-26T20:14:36.879Z,12.70
2019-02-26T20:17:14.364Z,12.40
2019-02-26T20:19:36.497Z,12.33
2019-02-26T20:22:05.369Z,13.17
2019-02-26T20:24:34.384Z,13.47
2019-02-26T20:27:03.245Z,16.60
2019-02-26T20:29:32.163Z,17.10
2019-02-26T20:32:01.136Z,17.93
2019-02-26T20:34:30.045Z,18.20
2019-02-26T20:36:58.894Z,16.83
2019-02-26T20:39:27.916Z,18.00
2019-02-26T20:41:56.907Z,15.20
2019-02-26T20:44:25.782Z,16.50
2019-02-26T20:46:55.704Z,15.50
2019-02-26T20:49:25.129Z,15.20
2019-02-26T20:51:53.990Z,15.67
2019-02-26T20:54:22.898Z,16.13
2019-02-26T20:56:51.868Z,18.53
2019-02-26T20:59:20.967Z,19.53
2019-02-26T21:01:49.807Z,17.47
2019-02-26T21:04:18.685Z,17.30
2019-02-26T21:06:50.411Z,16.57
2019-02-26T21:09:18.168Z,16.80
2019-02-26T21:11:47.151Z,17.60
2019-02-26T21:14:16.086Z,16.63
2019-02-26T21:16:45.029Z,17.30
2019-02-26T21:19:13.915Z,16.70
2019-02-26T21:21:42.775Z,14.27
2019-02-26T21:24:11.678Z,14.17
2019-02-26T21:26:40.636Z,13.97
2019-02-26T21:29:09.587Z,13.23
2019-02-26T21:31:38.495Z,14.47
2019-02-26T21:34:07.334Z,15.13
2019-02-26T21:36:36.188Z,14.10
2019-02-26T21:39:06.147Z,13.23
2019-02-26T21:41:34.995Z,13.37
2019-02-26T21:44:03.877Z,13.97
2019-02-26T21:46:32.753Z,13.47
2019-02-26T21:49:01.741Z,13.13
2019-02-26T21:51:33.718Z,12.70
2019-02-26T21:54:01.172Z,12.33
2019-02-26T21:56:30.137Z,12.33
2019-02-26T21:58:59.769Z,13.00
2019-02-26T22:01:29.464Z,12.67
2019-02-26T22:03:59.103Z,13.13
2019-02-26T22:06:28.110Z,13.30
2019-02-26T22:08:57.691Z,13.13
2019-02-26T22:11:26.870Z,12.30
2019-02-26T22:13:55.857Z,12.60
2019-02-26T22:16:24.825Z,12.93
2019-02-26T22:18:53.734Z,13.97
2019-02-26T22:21:22.569Z,13.37
2019-02-26T22:23:51.515Z,13.40
2019-02-26T22:26:20.360Z,12.90
2019-02-26T22:28:49.292Z,12.30
2019-02-26T22:31:18.199Z,12.37
2019-02-26T22:33:47.168Z,12.27
2019-02-26T22:36:16.159Z,12.27
2019-02-26T22:38:46.225Z,12.67
2019-02-26T22:41:15.547Z,12.53
2019-02-26T22:43:44.805Z,15.10
2019-02-26T22:46:15.185Z,15.47
2019-02-26T22:48:44.611Z,15.30
2019-02-26T22:51:14.811Z,13.97
2019-02-26T22:53:43.671Z,13.63
2019-02-26T22:56:12.520Z,12.70
2019-02-26T22:58:41.430Z,11.90
2019-02-26T23:01:30.528Z,11.80
2019-02-26T23:03:58.386Z,12.20
2019-02-26T23:06:29.490Z,12.33
2019-02-26T23:08:57.851Z,10.63
2019-02-26T23:11:31.543Z,12.13
2019-02-26T23:13:57.980Z,10.77
2019-02-26T23:16:26.841Z,12.10
2019-02-26T23:18:55.759Z,10.97
2019-02-26T23:21:24.725Z,11.70
2019-02-26T23:23:54.929Z,10.90
2019-02-26T23:26:24.469Z,11.70
2019-02-26T23:28:54.853Z,11.23
2019-02-26T23:31:24.120Z,11.50
2019-02-26T23:33:53.086Z,11.00
2019-02-26T23:36:22.011Z,11.17
2019-02-26T23:38:51.066Z,11.57
2019-02-26T23:41:20.041Z,11.80
2019-02-26T23:43:48.955Z,12.03
2019-02-26T23:46:17.808Z,12.00
2019-02-26T23:48:46.706Z,11.53
2019-02-26T23:51:20.239Z,11.47
2019-02-26T23:53:46.248Z,11.50
2019-02-26T23:56:16.724Z,11.50
2019-02-26T23:58:45.620Z,12.23
